Borkum Airport

EDWR · Niedersachsen, Deutschland

METAR-Geschichte EDWR · Borkum Airport

Unten siehst du die METARs der letzten paar Tage. Wähle ein Jahr, um ältere METARs ab dem Jahr 2007 zu durchsuchen.

28. November 2022

Uhrzeit Code Wetter Temp. Sichtweite Wolkendecke Wind METAR/SPECI
21:20
L
7 °C 650 m - 160° 160° 3 kt SPECI EDWE 282020Z AUTO 16003KT 120V190 0650 R07/0900D // VV/// 07/07 Q1012
21:20
L
7 °C 650 m - 160° 160° 3 kt METAR EDWE 282020Z AUTO 16003KT 120V190 0650 R07/0900D // VV/// 07/07 Q1012
20:50
L
7 °C 900 m - 180° 180° 3 kt METAR EDWE 281950Z AUTO 18003KT 0900 R07/1200D // VV/// 07/07 Q1012
20:20
L
7 °C 2 km 200 ft 160° 160° 3 kt METAR EDWE 281920Z AUTO 16003KT 2000 // BKN002/// OVC005/// 07/07 Q1012
19:50
L
7 °C 3,7 km 200 ft 160° 160° 3 kt METAR EDWE 281850Z AUTO 16003KT 130V200 3700 // OVC002/// 07/07 Q1012
19:20
L
7 °C 5 km 200 ft 160° 160° 3 kt METAR EDWE 281820Z AUTO 16003KT 130V200 5000 // OVC002/// 07/07 Q1011
18:50
L
7 °C 5 km 200 ft 170° 170° 4 kt METAR EDWE 281750Z AUTO 17004KT 130V200 5000 // OVC002/// 07/07 Q1011
18:20
L
7 °C 5 km 300 ft 160° 160° 4 kt METAR EDWE 281720Z AUTO 16004KT 130V200 5000 // OVC003/// 07/07 Q1011
05:50
M
6 °C 10 km+ 1.400 ft 140° 140° 8 kt METAR EDWE 280450Z AUTO 14008KT 120V180 9999 // OVC014/// 06/05 Q1008
05:20
I
6 °C 10 km+ 900 ft 150° 150° 9 kt METAR EDWE 280420Z AUTO 15009KT 9999 // OVC009/// 06/05 Q1008
04:50
I
6 °C 6 km 600 ft 140° 140° 10 kt METAR EDWE 280350Z AUTO 14010KT 120V180 6000 // BKN006/// OVC013/// 06/05 Q1008
04:20
I
6 °C 5 km 800 ft 150° 150° 8 kt METAR EDWE 280320Z AUTO 15008KT 5000 // OVC008/// 06/05 Q1009
03:50
M
6 °C 10 km+ 1.400 ft 130° 130° 10 kt METAR EDWE 280250Z AUTO 13010KT 9999 // OVC014/// 06/05 Q1009
03:20
M
6 °C 10 km+ 2.300 ft 140° 140° 10 kt METAR EDWE 280220Z AUTO 14010KT 9999 // FEW011/// OVC023/// 06/05 Q1009
02:50
M
6 °C 8 km 1.800 ft 130° 130° 11 kt METAR EDWE 280150Z AUTO 13011KT 8000 // FEW010/// BKN018/// OVC022/// 06/05 Q1009
02:20
M
6 °C 6 km 2.200 ft 140° 140° 11 kt METAR EDWE 280120Z AUTO 14011KT 6000 // FEW015/// BKN022/// OVC031/// 06/05 Q1010
01:50
V
6 °C 10 km+ 3.200 ft 130° 130° 10 kt METAR EDWE 280050Z AUTO 13010KT 9999 // FEW027/// BKN032/// OVC046/// 06/05 Q1010
01:20
M
6 °C 10 km+ 2.700 ft 130° 130° 9 kt METAR EDWE 280020Z AUTO 13009KT 100V160 9999 // FEW010/// BKN027/// OVC035/// 06/05 Q1011
00:50
M
6 °C 10 km+ 2.700 ft 140° 140° 10 kt METAR EDWE 272350Z AUTO 14010KT 9999 // FEW008/// BKN027/// OVC035/// 06/05 Q1011
00:20
M
6 °C 10 km+ 2.600 ft 140° 140° 10 kt METAR EDWE 272320Z AUTO 14010KT 9999 // FEW008/// OVC026/// 06/05 Q1012

27. November 2022

Uhrzeit Code Wetter Temp. Sichtweite Wolkendecke Wind METAR/SPECI
23:50
M
6 °C 10 km+ 2.500 ft 130° 130° 10 kt METAR EDWE 272250Z AUTO 13010KT 9999 // FEW009/// OVC025/// 06/05 Q1012
23:20
M
6 °C 10 km+ 2.400 ft 140° 140° 9 kt METAR EDWE 272220Z AUTO 14009KT 9999 // OVC024/// 06/05 Q1012
22:50
M
6 °C 10 km+ 2.300 ft 130° 130° 10 kt METAR EDWE 272150Z AUTO 13010KT 9999 // OVC023/// 06/05 Q1012
22:20
V
6 °C 10 km+ 3.600 ft 140° 140° 9 kt METAR EDWE 272120Z AUTO 14009KT 9999 // SCT027/// OVC036/// 06/05 Q1013
21:50
M
6 °C 10 km+ 2.700 ft 140° 140° 9 kt METAR EDWE 272050Z AUTO 14009KT 9999 // OVC027/// 06/05 Q1013
21:20
V
6 °C 10 km+ 3.100 ft 130° 130° 11 kt SPECI EDWE 272020Z AUTO 13011KT 9999 // OVC031/// 06/05 Q1014
20:50
V
6 °C 10 km+ 3.700 ft 140° 140° 10 kt METAR EDWE 271950Z AUTO 14010KT 9999 // SCT032/// OVC037/// 06/05 Q1014
20:20
V
6 °C 10 km+ 3.500 ft 140° 140° 11 kt METAR EDWE 271920Z AUTO 14011KT 9999 // OVC035/// 06/05 Q1014
19:50
M
6 °C 10 km+ 2.800 ft 140° 140° 10 kt METAR EDWE 271850Z AUTO 14010KT 9999 // OVC028/// 06/05 Q1014
19:20
V
6 °C 10 km+ 3.800 ft 140° 140° 11 kt METAR EDWE 271820Z AUTO 14011KT 9999 // SCT031/// BKN038/// OVC055/// 06/05 Q1015
18:50
V
6 °C 10 km+ 3.600 ft 140° 140° 12 kt METAR EDWE 271750Z AUTO 14012KT 9999 // SCT030/// BKN036/// OVC055/// 06/04 Q1015
18:20
V
6 °C 10 km+ 3.100 ft 140° 140° 11 kt METAR EDWE 271720Z AUTO 14011KT 9999 // SCT027/// BKN031/// OVC037/// 06/04 Q1015
17:50
V
6 °C 10 km+ 3.800 ft 140° 140° 11 kt METAR EDWE 271650Z AUTO 14011KT 9999 // SCT031/// OVC038/// 06/04 Q1016
17:20
V
6 °C 10 km+ 3.500 ft 140° 140° 11 kt METAR EDWE 271620Z AUTO 14011KT 9999 // OVC035/// 06/04 Q1016
16:50
V
6 °C 10 km+ 3.000 ft 140° 140° 9 kt METAR EDWE 271550Z AUTO 14009KT 9999 // OVC030/// 06/04 Q1016
16:20
V
6 °C 10 km+ 3.100 ft 140° 140° 10 kt METAR EDWE 271520Z AUTO 14010KT 9999 // BKN031/// BKN035/// OVC086/// 06/04 Q1017

Wir und Dritte verfolgen dein Internetverhalten auf unserer Website mit Cookies. Wenn du fortfährst, gehen wir davon aus, dass du mit unserer Cookie-Richtlinie einverstanden bist.